createdAt,value
2019-01-21T00:02:01.775Z,43.80
2019-01-21T00:07:06.573Z,43.17
2019-01-21T00:12:11.247Z,40.13
2019-01-21T00:17:22.298Z,44.60
2019-01-21T00:22:22.692Z,44.18
2019-01-21T00:27:27.634Z,48.43
2019-01-21T00:32:32.328Z,47.77
2019-01-21T00:37:37.027Z,44.80
2019-01-21T00:42:41.917Z,52.77
2019-01-21T00:47:46.606Z,51.53
2019-01-21T00:52:51.286Z,50.63
2019-01-21T00:57:55.967Z,44.93
2019-01-21T01:03:00.797Z,40.50
2019-01-21T01:08:05.975Z,45.70
2019-01-21T01:13:10.713Z,42.90
2019-01-21T01:18:15.464Z,42.60
2019-01-21T01:23:20.205Z,42.40
2019-01-21T01:28:24.889Z,44.80
2019-01-21T01:33:29.560Z,40.37
2019-01-21T01:38:34.247Z,43.90
2019-01-21T01:43:39.162Z,35.10
2019-01-21T01:48:43.824Z,43.53
2019-01-21T01:53:48.924Z,48.93
2019-01-21T01:58:53.800Z,46.73
2019-01-21T02:03:58.866Z,47.30
2019-01-21T02:09:07.556Z,45.63
2019-01-21T02:14:12.606Z,44.53
2019-01-21T02:19:19.462Z,44.33
2019-01-21T02:24:25.428Z,44.53
2019-01-21T02:30:05.043Z,42.67
2019-01-21T02:35:37.279Z,42.83
2019-01-21T02:40:53.996Z,41.17
2019-01-21T02:46:58.373Z,44.17
2019-01-21T02:52:15.031Z,44.77
2019-01-21T02:58:01.494Z,48.93
2019-01-21T03:03:48.691Z,44.67
2019-01-21T03:09:26.759Z,43.90
2019-01-21T03:14:48.038Z,43.63
2019-01-21T03:20:20.189Z,39.97
2019-01-21T03:26:12.699Z,47.60
2019-01-21T03:31:33.028Z,46.03
2019-01-21T03:36:55.360Z,41.87
2019-01-21T03:42:10.523Z,42.17
2019-01-21T03:47:29.847Z,43.80
2019-01-21T03:53:13.512Z,41.10
2019-01-21T03:58:33.846Z,43.67
2019-01-21T04:04:06.946Z,43.37
2019-01-21T04:09:37.768Z,45.53
2019-01-21T04:15:42.556Z,46.87
2019-01-21T04:21:19.588Z,42.90
2019-01-21T04:27:02.514Z,44.90
2019-01-21T04:32:24.796Z,42.47
2019-01-21T04:38:04.945Z,45.97
2019-01-21T04:43:28.862Z,42.75
2019-01-21T04:49:13.044Z,41.92
2019-01-21T04:54:29.220Z,46.13
2019-01-21T05:00:24.220Z,46.40
2019-01-21T05:06:07.557Z,44.93
2019-01-21T05:11:54.163Z,37.85
2019-01-21T05:17:42.849Z,45.13
2019-01-21T05:23:38.188Z,49.53
2019-01-21T05:29:06.253Z,47.10
2019-01-21T05:34:21.773Z,51.73
2019-01-21T05:40:07.865Z,44.77
2019-01-21T05:45:50.207Z,47.33
2019-01-21T05:51:35.389Z,47.97
2019-01-21T05:57:12.336Z,46.07
2019-01-21T06:02:52.921Z,50.17
2019-01-21T06:08:31.373Z,51.03
2019-01-21T06:14:04.207Z,51.43
2019-01-21T06:19:36.613Z,44.53
2019-01-21T06:25:03.458Z,46.70
2019-01-21T06:30:37.817Z,43.03
2019-01-21T06:36:20.573Z,46.67
2019-01-21T06:41:36.927Z,41.57
2019-01-21T06:47:31.831Z,44.80
2019-01-21T06:53:07.493Z,42.80
2019-01-21T06:58:57.078Z,41.23
2019-01-21T07:04:32.219Z,40.07
2019-01-21T07:09:49.408Z,40.20
2019-01-21T07:15:16.832Z,45.63
2019-01-21T07:21:18.020Z,42.43
2019-01-21T07:27:01.216Z,45.13
2019-01-21T07:32:40.056Z,42.87
2019-01-21T07:38:17.927Z,43.57
2019-01-21T07:43:54.946Z,45.33
2019-01-21T07:49:23.003Z,42.97
2019-01-21T07:54:49.844Z,41.73
2019-01-21T08:00:05.951Z,47.33
2019-01-21T08:05:34.360Z,41.07
2019-01-21T08:11:26.222Z,41.43
2019-01-21T08:17:13.473Z,45.40
2019-01-21T08:22:54.371Z,48.00
2019-01-21T08:28:35.483Z,51.20
2019-01-21T08:34:17.730Z,47.57
2019-01-21T08:39:58.906Z,42.93
2019-01-21T08:45:28.268Z,47.33
2019-01-21T08:51:11.460Z,53.00
2019-01-21T08:56:36.067Z,55.58
2019-01-21T09:02:12.865Z,59.23
2019-01-21T09:08:13.048Z,56.70
2019-01-21T09:14:00.459Z,53.23
2019-01-21T09:19:50.397Z,48.63
2019-01-21T09:25:27.240Z,56.70
2019-01-21T09:30:54.745Z,55.67
2019-01-21T09:36:20.786Z,52.17
2019-01-21T09:41:57.769Z,55.67
2019-01-21T09:47:01.729Z,49.47
2019-01-21T09:52:08.279Z,53.80
2019-01-21T09:57:25.269Z,54.10
2019-01-21T10:02:42.272Z,59.10
2019-01-21T10:08:13.557Z,55.70
2019-01-21T10:13:54.227Z,57.97
2019-01-21T10:19:27.753Z,54.53
2019-01-21T10:25:04.798Z,55.67
2019-01-21T10:30:49.953Z,52.53
2019-01-21T10:36:29.119Z,61.60
2019-01-21T10:41:47.330Z,59.77
2019-01-21T10:47:22.744Z,61.67
2019-01-21T10:53:20.910Z,68.10
2019-01-21T10:59:00.624Z,60.07
2019-01-21T11:04:28.829Z,61.23
2019-01-21T11:09:48.640Z,59.60
2019-01-21T11:15:19.676Z,60.23
2019-01-21T11:21:05.821Z,67.00
2019-01-21T11:26:40.783Z,61.93
2019-01-21T11:32:04.336Z,59.73
2019-01-21T11:37:26.888Z,57.50
2019-01-21T11:42:44.901Z,63.50
2019-01-21T11:48:07.220Z,59.73
2019-01-21T11:53:40.094Z,52.80
2019-01-21T11:59:16.702Z,49.87
2019-01-21T12:05:05.742Z,48.43
2019-01-21T12:10:49.283Z,47.50
2019-01-21T12:16:28.689Z,50.17
2019-01-21T12:21:46.176Z,55.60
2019-01-21T12:27:28.732Z,55.17
2019-01-21T12:32:54.902Z,54.57
2019-01-21T12:38:25.265Z,52.30
2019-01-21T12:43:53.563Z,49.73
2019-01-21T12:49:41.272Z,50.30
2019-01-21T12:55:24.923Z,52.67
2019-01-21T13:01:07.308Z,56.00
2019-01-21T13:07:05.256Z,58.10
2019-01-21T13:12:37.557Z,56.42
2019-01-21T13:18:21.125Z,54.20
2019-01-21T13:23:38.266Z,58.60
2019-01-21T13:29:04.097Z,56.23
2019-01-21T13:34:31.914Z,59.93
2019-01-21T13:40:03.624Z,52.23
2019-01-21T13:45:35.072Z,55.20
2019-01-21T13:51:11.087Z,57.10
2019-01-21T13:56:47.558Z,49.20
2019-01-21T14:02:12.536Z,56.63
2019-01-21T14:07:54.219Z,55.73
2019-01-21T14:13:11.536Z,47.10
2019-01-21T14:18:47.527Z,45.47
2019-01-21T14:24:30.666Z,50.47
2019-01-21T14:29:46.156Z,48.80
2019-01-21T14:35:30.961Z,52.83
2019-01-21T14:41:00.756Z,45.37
2019-01-21T14:46:39.015Z,50.03
2019-01-21T14:52:27.312Z,45.10
2019-01-21T14:57:51.569Z,44.90
2019-01-21T15:03:36.343Z,50.17
2019-01-21T15:09:16.400Z,50.77
2019-01-21T15:14:47.373Z,49.10
2019-01-21T15:20:30.321Z,51.37
2019-01-21T15:26:15.339Z,58.43
2019-01-21T15:31:40.996Z,54.57
2019-01-21T15:37:07.277Z,56.27
2019-01-21T15:42:42.685Z,55.80
2019-01-21T15:48:10.032Z,54.17
2019-01-21T15:53:30.951Z,54.07
2019-01-21T15:59:16.189Z,52.47
2019-01-21T16:04:53.341Z,61.95
2019-01-21T16:10:38.805Z,58.27
2019-01-21T16:16:10.873Z,59.10
2019-01-21T16:21:42.626Z,58.07
2019-01-21T16:26:56.159Z,60.10
2019-01-21T16:32:27.773Z,62.33
2019-01-21T16:37:43.510Z,64.83
2019-01-21T16:42:48.203Z,62.50
2019-01-21T16:47:52.973Z,66.53
2019-01-21T16:52:57.891Z,67.37
2019-01-21T16:58:02.785Z,62.73
2019-01-21T17:03:07.814Z,62.23
2019-01-21T17:08:14.056Z,55.53
2019-01-21T17:13:26.587Z,63.43
2019-01-21T17:18:31.607Z,62.60
2019-01-21T17:23:36.560Z,66.50
2019-01-21T17:34:43.388Z,68.87
2019-01-21T17:39:48.148Z,60.77
2019-01-21T17:44:52.869Z,73.10
2019-01-21T17:49:57.629Z,69.05
2019-01-21T17:55:03.379Z,61.33
2019-01-21T18:00:12.386Z,72.30
2019-01-21T18:05:17.455Z,65.53
2019-01-21T18:10:22.377Z,66.67
2019-01-21T18:15:27.020Z,71.83
2019-01-21T18:20:31.704Z,71.07
2019-01-21T18:25:36.361Z,71.17
2019-01-21T18:30:41.177Z,68.40
2019-01-21T18:35:45.970Z,61.00
2019-01-21T18:40:50.754Z,68.83
2019-01-21T18:45:55.522Z,67.37
2019-01-21T18:51:00.209Z,72.87
2019-01-21T18:56:05.278Z,69.67
2019-01-21T19:01:21.575Z,71.72
2019-01-21T19:06:26.303Z,70.53
2019-01-21T19:11:31.125Z,72.67
2019-01-21T19:16:35.888Z,77.03
2019-01-21T19:21:41.533Z,77.13
2019-01-21T19:26:46.243Z,78.47
2019-01-21T19:31:51.014Z,79.00
2019-01-21T19:36:55.846Z,76.53
2019-01-21T19:42:00.548Z,83.07
2019-01-21T19:47:05.488Z,79.63
2019-01-21T19:52:10.245Z,76.03
2019-01-21T19:57:14.912Z,80.00
2019-01-21T20:02:19.608Z,80.97
2019-01-21T20:07:24.324Z,78.20
2019-01-21T20:12:29.040Z,78.60
2019-01-21T20:17:33.734Z,79.93
2019-01-21T20:22:38.516Z,76.47
2019-01-21T20:27:44.180Z,78.80
2019-01-21T20:32:49.632Z,78.53
2019-01-21T20:37:54.756Z,77.27
2019-01-21T20:42:59.547Z,72.87
2019-01-21T20:48:04.345Z,77.90
2019-01-21T20:53:09.175Z,77.73
2019-01-21T20:58:13.908Z,75.30
2019-01-21T21:03:18.877Z,76.10
2019-01-21T21:08:24.102Z,80.33
2019-01-21T21:13:29.427Z,78.43
2019-01-21T21:18:34.716Z,80.27
2019-01-21T21:23:40.051Z,77.63
2019-01-21T21:28:45.246Z,78.80
2019-01-21T21:33:50.675Z,76.83
2019-01-21T21:38:55.946Z,77.80
2019-01-21T21:44:01.401Z,78.57
2019-01-21T21:49:07.045Z,80.83
2019-01-21T21:54:12.263Z,80.80
2019-01-21T21:59:17.535Z,84.83
2019-01-21T22:04:24.573Z,86.33
2019-01-21T22:09:29.815Z,84.93
2019-01-21T22:14:35.140Z,84.63
2019-01-21T22:19:40.431Z,85.43
2019-01-21T22:24:45.626Z,88.70
2019-01-21T22:29:50.385Z,84.40
2019-01-21T22:34:55.155Z,85.93
2019-01-21T22:39:59.943Z,86.90
2019-01-21T22:45:05.484Z,87.10
2019-01-21T22:50:11.627Z,88.93
2019-01-21T22:55:16.428Z,95.33
2019-01-21T23:00:42.024Z,86.57
2019-01-21T23:05:47.357Z,83.10
2019-01-21T23:10:52.248Z,89.00
2019-01-21T23:15:57.013Z,88.63
2019-01-21T23:21:01.776Z,88.07
2019-01-21T23:26:06.853Z,87.67
2019-01-21T23:31:11.527Z,96.47
2019-01-21T23:36:16.278Z,93.30
2019-01-21T23:41:20.955Z,87.67
2019-01-21T23:46:26.040Z,87.73
2019-01-21T23:51:30.835Z,94.73
2019-01-21T23:56:35.593Z,97.73
